地図

経路データ

SID SEASON NUMBER BASIN SUBBASIN NAME ISO_TIME NATURE LAT LON WMO_WIND WMO_PRES WMO_AGENCY TRACK_TYPE DIST2LAND LANDFALL IFLAG USA_AGENCY USA_ATCF_ID USA_LAT USA_LON USA_RECORD USA_STATUS USA_WIND USA_PRES USA_SSHS USA_R34_NE USA_R34_SE USA_R34_SW USA_R34_NW USA_R50_NE USA_R50_SE USA_R50_SW USA_R50_NW USA_R64_NE USA_R64_SE USA_R64_SW USA_R64_NW USA_POCI USA_ROCI USA_RMW USA_EYE TOKYO_LAT TOKYO_LON TOKYO_GRADE TOKYO_WIND TOKYO_PRES TOKYO_R50_DIR TOKYO_R50_LONG TOKYO_R50_SHORT TOKYO_R30_DIR TOKYO_R30_LONG TOKYO_R30_SHORT TOKYO_LAND CMA_LAT CMA_LON CMA_CAT CMA_WIND CMA_PRES HKO_LAT HKO_LON HKO_CAT HKO_WIND HKO_PRES NEWDELHI_LAT NEWDELHI_LON NEWDELHI_GRADE NEWDELHI_WIND NEWDELHI_PRES NEWDELHI_CI NEWDELHI_DP NEWDELHI_POCI REUNION_LAT REUNION_LON REUNION_TYPE REUNION_WIND REUNION_PRES REUNION_TNUM REUNION_CI REUNION_RMW REUNION_R34_NE REUNION_R34_SE REUNION_R34_SW REUNION_R34_NW REUNION_R50_NE REUNION_R50_SE REUNION_R50_SW REUNION_R50_NW REUNION_R64_NE REUNION_R64_SE REUNION_R64_SW REUNION_R64_NW BOM_LAT BOM_LON BOM_TYPE BOM_WIND BOM_PRES BOM_TNUM BOM_CI BOM_RMW BOM_R34_NE BOM_R34_SE BOM_R34_SW BOM_R34_NW BOM_R50_NE BOM_R50_SE BOM_R50_SW BOM_R50_NW BOM_R64_NE BOM_R64_SE BOM_R64_SW BOM_R64_NW BOM_ROCI BOM_POCI BOM_EYE BOM_POS_METHOD BOM_PRES_METHOD NADI_LAT NADI_LON NADI_CAT NADI_WIND NADI_PRES WELLINGTON_LAT WELLINGTON_LON WELLINGTON_WIND WELLINGTON_PRES DS824_LAT DS824_LON DS824_STAGE DS824_WIND DS824_PRES TD9636_LAT TD9636_LON TD9636_STAGE TD9636_WIND TD9636_PRES TD9635_LAT TD9635_LON TD9635_WIND TD9635_PRES TD9635_ROCI NEUMANN_LAT NEUMANN_LON NEUMANN_CLASS NEUMANN_WIND NEUMANN_PRES MLC_LAT MLC_LON MLC_CLASS MLC_WIND MLC_PRES USA_GUST BOM_GUST BOM_GUST_PER REUNION_GUST REUNION_GUST_PER USA_SEAHGT USA_SEARAD_NE USA_SEARAD_SE USA_SEARAD_SW USA_SEARAD_NW STORM_SPEED STORM_DIR
1934307N08131 1934 74 WP MM NOT_NAMED 1934-11-03 10:00:00 NR 7.80000 131.400 main 529 454 __________O___ -1 7.80000 131.400 7 22 297
1934307N08131 1934 74 WP MM NOT_NAMED 1934-11-03 12:00:00 NR 8.13049 130.734 main 454 356 __________P___ -1 8.13049 130.734 7 22 296
1934307N08131 1934 74 WP MM NOT_NAMED 1934-11-03 15:00:00 NR 8.61395 129.728 main 356 265 __________P___ -1 8.61395 129.728 7 22 295
1934307N08131 1934 74 WP MM NOT_NAMED 1934-11-03 18:00:00 NR 9.06810 128.705 main 265 168 __________P___ -1 9.06810 128.705 7 22 293
1934307N08131 1934 74 WP MM NOT_NAMED 1934-11-03 21:00:00 NR 9.47671 127.657 main 168 139 __________P___ -1 9.47671 127.657 7 22 291
1934307N08131 1934 74 WP MM NOT_NAMED 1934-11-03 22:00:00 NR 9.60000 127.300 main 128 73 __________O___ -1 9.60000 127.300 2 22 288
1934307N08131 1934 74 WP MM NOT_NAMED 1934-11-04 00:00:00 NR 9.82442 126.575 main 73 31 __________P___ -1 9.82442 126.575 2 23 286
1934307N08131 1934 74 WP MM NOT_NAMED 1934-11-04 03:00:00 NR 10.1052 125.463 main 31 0 __________P___ -1 10.1052 125.463 2 23 283
1934307N08131 1934 74 WP MM NOT_NAMED 1934-11-04 06:00:00 NR 10.3189 124.329 main 22 0 __________P___ -1 10.3189 124.329 2 23 279
1934307N08131 1934 74 WP MM NOT_NAMED 1934-11-04 09:00:00 NR 10.4658 123.183 main 0 0 __________P___ -1 10.4658 123.183 2 23 277
1934307N08131 1934 74 WP MM NOT_NAMED 1934-11-04 10:00:00 NR 10.5000 122.800 main 0 0 __________O___ -1 10.5000 122.800 2 23 273
1934307N08131 1934 74 WP MM NOT_NAMED 1934-11-04 12:00:00 NR 10.5278 122.001 main 0 10 __________P___ -1 10.5278 122.001 2 24 270
1934307N08131 1934 74 WP MM NOT_NAMED 1934-11-04 15:00:00 NR 10.5126 120.797 main 120 0 __________P___ -1 10.5126 120.797 2 23 269
1934307N08131 1934 74 WP MM NOT_NAMED 1934-11-04 18:00:00 NR 10.4783 119.626 main 0 0 __________P___ -1 10.4783 119.626 2 22 269
1934307N08131 1934 74 WP MM NOT_NAMED 1934-11-04 21:00:00 NR 10.4811 118.537 main 55 55 __________P___ -1 10.4811 118.537 2 21 271
1934307N08131 1934 74 WP MM NOT_NAMED 1934-11-04 22:00:00 NR 10.5000 118.200 main 79 79 __________O___ -1 10.5000 118.200 2 19 277
1934307N08131 1934 74 WP MM NOT_NAMED 1934-11-05 00:00:00 NR 10.5946 117.577 main 141 148 __________P___ -1 10.5946 117.577 2 18 282
1934307N08131 1934 74 WP MM NOT_NAMED 1934-11-05 03:00:00 NR 10.7944 116.730 main 215 215 __________P___ -1 10.7944 116.730 2 17 286
1934307N08131 1934 74 WP MM NOT_NAMED 1934-11-05 06:00:00 NR 11.0414 115.960 main 282 297 __________P___ -1 11.0414 115.960 2 16 289
1934307N08131 1934 74 WP MM NOT_NAMED 1934-11-05 09:00:00 NR 11.3101 115.236 main 368 368 __________P___ -1 11.3101 115.236 2 15 291
1934307N08131 1934 74 WP MM NOT_NAMED 1934-11-05 10:00:00 NR 11.4000 115.000 main 391 391 __________O___ -1 11.4000 115.000 2 15 291
1934307N08131 1934 74 WP MM NOT_NAMED 1934-11-05 12:00:00 NR 11.5761 114.530 main 446 446 __________P___ -1 11.5761 114.530 2 15 291
1934307N08131 1934 74 WP MM NOT_NAMED 1934-11-05 15:00:00 NR 11.8313 113.828 main 476 395 __________P___ -1 11.8313 113.828 2 15 290
1934307N08131 1934 74 WP MM NOT_NAMED 1934-11-05 18:00:00 NR 12.0785 113.130 main 395 316 __________P___ -1 12.0785 113.130 2 15 290
1934307N08131 1934 74 WP MM NOT_NAMED 1934-11-05 21:00:00 NR 12.3202 112.432 main 316 294 __________P___ -1 12.3202 112.432 2 14 289
1934307N08131 1934 74 WP MM NOT_NAMED 1934-11-05 22:00:00 NR 12.4000 112.200 main 294 __________O___ -1 12.4000 112.200 2 14 289

デジタル台風データ・検索

IBTrACS Databaseについて

本データベースは、米国NOAAが公開する1842年以降の世界の熱帯低気圧のベストトラックデータアーカイブInternational Best Track Archive for Climate Stewardship (IBTrACS)を、ウェブで閲覧しやすい形式に変換したものです。

最終更新日:2021-11-26